Mica, WA

1:28 AM PDT on October 20, 2014 (GMT -0700)
Morningside | Change Station
CLOSE
Current Station
Personal Weather Station
Location: Greenacres, WA
Elevation: 2337 ft
Nearby Weather Stations

Elev 2337 ft 47.63 °N, 117.17 °W | Updated 59 minutes ago

Clear
Clear
50.9 °F
Feels Like 50.9 °F
N
0.0
Wind Variable Wind from NNW
Gusts 0.0 mph

Today
High -- | Low -- °F
--% Chance of Precip.
Yesterday
High -- | Low -- °F
Precip. -- in
7:14 AM 5:51 PM
Waning Crescent, 12% visible
Pressure 29.75 in
Visibility 10.0 miles
Clouds Clear
Dew Point 26 °F
Humidity 38%
Rainfall 0.00 in
Snow Depth Not available.
UV 0 out of 12
Pollen 2.40 out of 12
PM2.5 Moderate
Flu Activity Sporadic
METAR KSFF 200753Z AUTO 00000KT 10SM CLR 09/08 A2977 RMK AO2 SLP075 T00940078 402280078

More Conditions Fewer Conditions

Pressure 29.75 in
Visibility 10.0 miles
Clouds Clear
Dew Point 26 °F
Humidity 38%
Rainfall 0.00 in
Snow Depth Not available.
UV 0 out of 12
Pollen 2.40 out of 12
PM2.5 Moderate
Flu Activity Sporadic
METAR KSFF 200753Z AUTO 00000KT 10SM CLR 09/08 A2977 RMK AO2 SLP075 T00940078 402280078

More Conditions Fewer Conditions

10-Day Weather Forecast

Almanac

Astronomy

Oct. 20, 2014 Rise Set
Actual Time 7:14 AM PDT 5:51 PM PDT
Civil Twilight 6:43 AM PDT 6:22 PM PDT
Nautical Twilight 6:07 AM PDT 6:58 PM PDT
Astronomical Twilight 5:32 AM PDT 7:33 PM PDT
Moon 3:54 AM PDT 4:27 PM PDT
Length of Visible Light 11h 39m
Length of Day
10h 36m
Waning Crescent, 12% of the Moon is Illuminated
Today
Waning Crescent
Oct 23
New
Oct 30
First Quarter
Nov 6
Full
Nov 14
Last Quarter

Today's Extremes

State Highs State Lows

Community

WunderPhotos

Upload Photos

1,763,316 photos uploaded!

Nearby

Air Quality

  Air Quality AQ Index Pollutant
Yesterday Good
PM10
Current Moderate
PM2.5
Monday Good
PM10
Monday Good
CO

Snow Depth

Station Depth Elevation
Quartz Peak 1 in 4700 ft
Bunchgrass Meadow 0 in 5000 ft
Sourdough Gulch 0 in 4000 ft
Spruce Springs 1 in 5700 ft
Moses Mountain 0 in 5300 ft

Earthquake Activity

City Distance Mag. Time & Date
No recent earthquake activity has been reported nearby.
Minimum magnitude displayed is 2.5.

Coastal Water Temperatures

Place Temperature
No Stations Reporting

Nearby Weather Stations